Time;durP1;ratioP1;P1;durP2;ratioP2;P2;SDS_P1;SDS_P2;PMS_P1;PMS_P2;Temp;Humidity;BMP_temperature;BMP_pressure;BME280_temperature;BME280_humidity;BME280_pressure;Samples;Min_cycle;Max_cycle;Signal;HPM_P1;HPM_P2
2022/08/21 00:02:21;;;;;;;17.35;15.65;;;;;;;22.46;81.20;100900.02;1637913;86;21489;-86
2022/08/21 00:04:48;;;;;;;18.10;16.40;;;;;;;22.51;81.27;100896.78;1651338;86;21045;-86
2022/08/21 00:07:15;;;;;;;17.10;15.58;;;;;;;22.53;81.18;100898.10;1646093;86;21532;-86
2022/08/21 00:09:41;;;;;;;16.57;15.08;;;;;;;22.55;81.16;100895.80;1651501;85;22072;-86
2022/08/21 00:12:08;;;;;;;15.45;14.05;;;;;;;22.56;81.05;100896.67;1661182;86;20980;-87
2022/08/21 00:14:38;;;;;;;13.50;12.30;;;;;;;22.51;80.67;100890.95;1635187;86;21521;-86
2022/08/21 00:17:05;;;;;;;12.13;11.12;;;;;;;22.49;80.60;100892.80;1654388;86;21154;-86
2022/08/21 00:19:31;;;;;;;12.68;11.57;;;;;;;22.49;80.45;100881.19;1645554;86;21450;-87
2022/08/21 00:21:58;;;;;;;13.53;12.18;;;;;;;22.45;80.36;100887.08;1637925;86;21765;-87
2022/08/21 00:24:26;;;;;;;12.05;10.90;;;;;;;22.41;80.40;100879.11;1632475;86;21028;-87
2022/08/21 00:26:53;;;;;;;12.00;10.90;;;;;;;22.36;80.46;100871.65;1628574;86;21032;-87
2022/08/21 00:29:20;;;;;;;13.58;11.90;;;;;;;22.36;80.52;100877.02;1632469;86;21501;-87
2022/08/21 00:31:46;;;;;;;12.07;11.00;;;;;;;22.34;80.55;100877.51;1632488;86;21047;-87
2022/08/21 00:34:13;;;;;;;14.33;12.05;;;;;;;22.34;80.64;100878.38;1641254;85;22411;-87
2022/08/21 00:36:40;;;;;;;13.62;12.43;;;;;;;22.34;80.64;100877.51;1649157;86;21014;-87
2022/08/21 00:39:07;;;;;;;11.90;10.65;;;;;;;22.35;80.73;100873.89;1632372;86;21011;-87
2022/08/21 00:41:36;;;;;;;11.85;10.80;;;;;;;22.33;80.77;100871.23;1632513;86;21126;-87
2022/08/21 00:44:03;;;;;;;11.65;10.55;;;;;;;22.38;80.93;100874.71;1632669;86;21031;-87
2022/08/21 00:46:30;;;;;;;10.95;9.95;;;;;;;22.39;80.88;100879.61;1632507;86;22579;-87
2022/08/21 00:48:58;;;;;;;10.58;8.93;;;;;;;22.42;80.82;100884.92;1632332;86;21081;-87
2022/08/21 00:51:33;;;;;;;10.38;9.35;;;;;;;22.41;80.59;100885.39;1665187;86;21057;-87
2022/08/21 00:54:00;;;;;;;8.78;7.97;;;;;;;22.37;80.46;100880.98;1639373;86;21172;-87
2022/08/21 00:56:28;;;;;;;7.78;7.05;;;;;;;22.36;80.35;100879.23;1631829;86;21075;-87
2022/08/21 00:58:55;;;;;;;8.78;7.40;;;;;;;22.31;80.13;100884.67;1650739;84;21595;-87
2022/08/21 01:01:22;;;;;;;9.10;7.10;;;;;;;22.26;80.11;100877.64;1698620;83;21536;-86
2022/08/21 01:03:49;;;;;;;8.38;7.50;;;;;;;22.27;80.20;100874.06;1695892;83;20979;-87
2022/08/21 01:06:16;;;;;;;8.20;7.37;;;;;;;22.29;80.38;100876.25;1702502;81;21015;-87
2022/08/21 01:08:43;;;;;;;8.35;7.55;;;;;;;22.33;80.42;100872.58;1713223;83;21050;-86
2022/08/21 01:11:10;;;;;;;7.78;7.08;;;;;;;22.36;80.33;100867.16;1712775;83;22589;-87
2022/08/21 01:13:37;;;;;;;8.08;7.35;;;;;;;22.39;80.33;100868.88;1692028;83;20976;-86
2022/08/21 01:16:05;;;;;;;8.08;7.28;;;;;;;22.41;80.04;100871.06;1696845;83;21047;-87
2022/08/21 01:18:32;;;;;;;7.25;6.53;;;;;;;22.41;80.08;100873.75;1719423;83;21002;-85
2022/08/21 01:21:12;;;;;;;7.92;7.22;;;;;;;22.42;80.07;100871.51;1716477;83;21058;-85
2022/08/21 01:23:42;;;;;;;7.90;7.20;;;;;;;22.46;80.36;100870.05;1703013;83;21831;-85
2022/08/21 01:26:09;;;;;;;8.03;7.22;;;;;;;22.49;80.28;100874.02;1697162;83;20983;-87
2022/08/21 01:28:40;;;;;;;8.10;7.28;;;;;;;22.49;80.12;100871.80;1718036;83;21002;-87
2022/08/21 01:31:08;;;;;;;8.00;7.20;;;;;;;22.49;80.05;100870.46;1725937;83;21023;-86
2022/08/21 01:33:35;;;;;;;8.43;7.72;;;;;;;22.47;80.04;100871.83;1706188;83;21023;-85
2022/08/21 01:36:02;;;;;;;8.33;7.62;;;;;;;22.46;80.12;100866.03;1696691;83;21194;-85
2022/08/21 01:38:29;;;;;;;8.23;7.53;;;;;;;22.47;80.17;100869.61;1696641;83;21030;-85
2022/08/21 01:40:56;;;;;;;8.35;7.50;;;;;;;22.47;80.25;100865.13;1717068;83;21033;-85
2022/08/21 01:43:23;;;;;;;8.43;7.62;;;;;;;22.48;80.22;100861.97;1696661;83;21474;-85
2022/08/21 01:45:49;;;;;;;8.60;7.70;;;;;;;22.47;80.22;100862.91;1696873;83;21146;-85
2022/08/21 01:48:16;;;;;;;7.83;7.00;;;;;;;22.46;80.08;100865.16;1696861;83;22565;-85
2022/08/21 01:50:43;;;;;;;8.48;7.67;;;;;;;22.46;80.20;100858.45;1696798;83;21028;-85
2022/08/21 01:53:10;;;;;;;8.78;7.90;;;;;;;22.46;80.12;100855.77;1696986;83;20994;-85
2022/08/21 01:55:37;;;;;;;10.23;7.67;;;;;;;22.43;79.92;100853.14;1715606;83;21492;-86
2022/08/21 01:58:03;;;;;;;8.73;7.87;;;;;;;22.40;80.05;100849.20;1698053;83;21618;-86
2022/08/21 02:00:30;;;;;;;9.93;8.43;;;;;;;22.38;80.10;100850.58;1687152;84;21736;-86
2022/08/21 02:02:57;;;;;;;8.25;7.42;;;;;;;22.35;80.15;100849.30;1701586;83;21003;-86
2022/08/21 02:05:25;;;;;;;7.67;7.03;;;;;;;22.36;80.22;100844.83;1681356;83;21083;-86
2022/08/21 02:07:52;;;;;;;7.50;6.80;;;;;;;22.34;80.17;100843.52;1682842;84;20986;-86
2022/08/21 02:10:23;;;;;;;8.65;7.28;;;;;;;22.34;80.24;100846.67;1676260;84;21004;-86
2022/08/21 02:12:50;;;;;;;7.35;6.20;;;;;;;22.34;80.24;100844.86;1659183;86;21756;-86
2022/08/21 02:15:18;;;;;;;9.55;6.67;;;;;;;22.33;80.27;100840.40;1636295;86;21045;-86
2022/08/21 02:17:48;;;;;;;6.60;6.00;;;;;;;22.31;80.12;100839.55;1632217;86;21033;-86
2022/08/21 02:20:25;;;;;;;6.78;6.10;;;;;;;22.30;80.20;100847.19;1634471;86;21024;-86
2022/08/21 02:22:52;;;;;;;6.90;6.28;;;;;;;22.30;80.21;100846.73;1646362;84;21013;-88
2022/08/21 02:25:19;;;;;;;5.97;5.42;;;;;;;22.28;80.22;100843.63;1652954;86;22540;-87
2022/08/21 02:27:47;;;;;;;6.05;5.55;;;;;;;22.29;80.24;100844.07;1648743;86;21470;-87
2022/08/21 02:30:17;;;;;;;5.92;5.40;;;;;;;22.24;80.00;100837.89;1632123;86;21055;-87
2022/08/21 02:32:44;;;;;;;5.97;5.45;;;;;;;22.22;80.07;100833.89;1632147;86;21085;-87
2022/08/21 02:35:11;;;;;;;6.72;5.53;;;;;;;22.20;80.13;100836.19;1649288;85;21011;-87
2022/08/21 02:37:53;;;;;;;5.95;5.37;;;;;;;22.18;80.15;100832.20;1633656;85;21809;-87
2022/08/21 02:40:22;;;;;;;6.60;6.00;;;;;;;22.18;80.17;100825.97;1632102;86;21012;-87
2022/08/21 02:42:49;;;;;;;5.87;5.20;;;;;;;22.20;80.21;100835.73;1632172;86;20980;-86
2022/08/21 02:45:17;;;;;;;7.92;6.17;;;;;;;22.18;80.14;100826.84;1632087;86;21032;-87
2022/08/21 02:47:55;;;;;;;6.22;5.62;;;;;;;22.20;80.24;100826.81;1663268;86;21627;-87
2022/08/21 02:50:28;;;;;;;6.80;6.12;;;;;;;22.20;80.23;100823.66;1658390;86;21218;-88
2022/08/21 02:52:56;;;;;;;6.47;5.87;;;;;;;22.19;80.18;100821.05;1632385;87;20976;-87
2022/08/21 02:55:23;;;;;;;6.30;5.80;;;;;;;22.19;80.21;100817.02;1659123;86;21000;-87
2022/08/21 02:57:50;;;;;;;8.95;5.75;;;;;;;22.17;80.19;100818.39;1639912;86;21019;-87
2022/08/21 03:00:17;;;;;;;6.58;6.00;;;;;;;22.17;80.19;100809.00;1646285;86;21045;-87
2022/08/21 03:02:46;;;;;;;6.45;5.85;;;;;;;22.12;80.09;100809.09;1612109;87;21867;-87
2022/08/21 03:05:12;;;;;;;7.90;6.28;;;;;;;22.05;79.96;100810.13;1616237;87;20996;-87
2022/08/21 03:07:39;;;;;;;6.35;5.55;;;;;;;22.04;80.22;100812.87;1624166;86;21016;-87
2022/08/21 03:10:06;;;;;;;6.22;5.72;;;;;;;22.04;80.30;100808.38;1632121;87;21993;-87
2022/08/21 03:12:35;;;;;;;6.85;6.25;;;;;;;22.02;80.18;100805.33;1621382;87;21097;-87
2022/08/21 03:15:06;;;;;;;6.40;5.80;;;;;;;21.99;80.19;100808.94;1652687;85;21904;-87
2022/08/21 03:17:33;;;;;;;7.53;6.55;;;;;;;21.98;80.31;100812.55;1642674;86;21058;-87
2022/08/21 03:20:00;;;;;;;6.55;5.97;;;;;;;21.99;80.38;100808.06;1614609;86;21025;-87
2022/08/21 03:22:27;;;;;;;6.97;6.33;;;;;;;21.97;80.34;100808.55;1652650;85;21027;-87
2022/08/21 03:24:54;;;;;;;9.30;8.40;;;;;;;21.94;80.32;100813.06;1633730;85;21083;-87
2022/08/21 03:27:21;;;;;;;7.92;7.22;;;;;;;21.89;80.30;100814.95;1658246;85;21913;-87
2022/08/21 03:29:48;;;;;;;7.20;6.60;;;;;;;21.88;80.43;100817.66;1646712;85;21038;-87
2022/08/21 03:32:14;;;;;;;7.42;6.83;;;;;;;21.87;80.50;100822.61;1650376;85;21035;-87
2022/08/21 03:34:41;;;;;;;7.40;6.78;;;;;;;21.87;80.61;100822.14;1633695;86;21023;-87
2022/08/21 03:37:09;;;;;;;7.83;6.80;;;;;;;21.87;80.56;100828.84;1652701;85;21051;-87
2022/08/21 03:39:36;;;;;;;9.28;7.08;;;;;;;21.86;80.53;100823.50;1633641;86;22375;-87
2022/08/21 03:42:04;;;;;;;8.28;6.95;;;;;;;21.84;80.64;100824.88;1633660;85;21098;-87
2022/08/21 03:44:31;;;;;;;7.47;6.80;;;;;;;21.86;80.71;100827.06;1651758;86;20983;-87
2022/08/21 03:46:59;;;;;;;7.85;6.87;;;;;;;21.88;80.71;100829.25;1633628;86;21032;-87
2022/08/21 03:49:26;;;;;;;7.70;6.72;;;;;;;21.86;80.61;100824.84;1652552;86;21027;-87
2022/08/21 03:51:54;;;;;;;7.78;7.00;;;;;;;21.83;80.68;100828.48;1647285;86;22569;-87
2022/08/21 03:54:21;;;;;;;7.12;6.42;;;;;;;21.79;80.62;100828.56;1668532;85;21007;-87
2022/08/21 03:56:48;;;;;;;7.58;6.83;;;;;;;21.79;80.86;100837.50;1633589;85;21043;-87
2022/08/21 03:59:14;;;;;;;7.45;6.78;;;;;;;21.82;80.92;100839.22;1652267;84;21435;-87
2022/08/21 04:01:54;;;;;;;7.33;6.72;;;;;;;21.83;80.86;100841.88;1667925;84;21477;-87
2022/08/21 04:04:21;;;;;;;9.18;6.80;;;;;;;21.83;80.93;100836.52;1693672;84;21809;-87
2022/08/21 04:06:49;;;;;;;7.28;6.58;;;;;;;21.89;81.00;100840.87;1674215;84;20995;-87
2022/08/21 04:09:17;;;;;;;7.78;7.08;;;;;;;21.93;80.97;100838.55;1674009;84;21024;-87
2022/08/21 04:11:45;;;;;;;8.73;7.12;;;;;;;21.93;80.83;100838.55;1687001;84;21086;-87
2022/08/21 04:14:12;;;;;;;6.67;6.08;;;;;;;21.91;80.77;100836.36;1674391;84;20984;-87
2022/08/21 04:16:39;;;;;;;7.22;6.45;;;;;;;21.93;80.90;100841.23;1679189;84;21729;-87
2022/08/21 04:19:05;;;;;;;7.53;6.83;;;;;;;21.97;81.01;100849.63;1674415;84;21023;-87
2022/08/21 04:21:32;;;;;;;7.62;6.83;;;;;;;21.97;81.00;100842.92;1667782;84;20968;-87
2022/08/21 04:23:59;;;;;;;7.53;6.40;;;;;;;21.98;80.84;100846.48;1686733;84;20991;-87
2022/08/21 04:26:26;;;;;;;7.10;6.50;;;;;;;21.97;80.79;100845.61;1682789;84;21010;-87
2022/08/21 04:28:52;;;;;;;7.60;6.72;;;;;;;21.96;80.74;100845.62;1679686;84;21735;-87
2022/08/21 04:31:20;;;;;;;7.87;7.08;;;;;;;21.92;80.75;100837.67;1685385;84;21088;-87
2022/08/21 04:33:46;;;;;;;7.83;7.03;;;;;;;21.92;80.79;100835.00;1685258;84;20997;-87
2022/08/21 04:36:13;;;;;;;8.85;6.65;;;;;;;21.93;80.88;100836.75;1688156;83;21023;-87
2022/08/21 04:38:40;;;;;;;8.13;7.05;;;;;;;21.94;80.82;100840.30;1682915;84;21011;-87
2022/08/21 04:41:07;;;;;;;8.28;7.45;;;;;;;21.91;80.82;100844.41;1674383;83;22543;-87
2022/08/21 04:43:35;;;;;;;8.15;7.28;;;;;;;21.89;80.88;100847.11;1674240;84;20996;-87
2022/08/21 04:46:02;;;;;;;8.15;6.87;;;;;;;21.91;80.87;100848.42;1702647;84;21066;-87
2022/08/21 04:48:29;;;;;;;7.97;7.22;;;;;;;21.90;80.81;100842.62;1690935;84;21516;-87
2022/08/21 04:51:03;;;;;;;8.50;6.80;;;;;;;21.88;80.83;100847.13;1689984;84;21521;-87
2022/08/21 04:53:42;;;;;;;10.15;6.40;;;;;;;21.89;80.94;100852.47;1667776;83;22589;-87
2022/08/21 04:56:15;;;;;;;10.80;8.05;;;;;;;21.90;80.85;100856.02;1690249;84;21032;-87
2022/08/21 04:58:42;;;;;;;7.40;6.70;;;;;;;21.91;80.94;100861.82;1689286;83;21190;-87
2022/08/21 05:01:13;;;;;;;7.45;6.70;;;;;;;21.94;80.98;100866.66;1696138;84;21129;-87
2022/08/21 05:03:40;;;;;;;7.62;6.92;;;;;;;21.98;81.00;100871.94;1653246;85;21004;-87
2022/08/21 05:06:08;;;;;;;7.50;6.65;;;;;;;22.03;81.01;100874.95;1693546;84;21721;-88
2022/08/21 05:08:35;;;;;;;8.00;7.00;;;;;;;22.05;80.93;100874.46;1689475;83;21532;-87
2022/08/21 05:11:03;;;;;;;8.28;7.17;;;;;;;22.04;80.78;100878.08;1665040;85;21064;-87
2022/08/21 05:13:30;;;;;;;8.68;6.92;;;;;;;22.07;80.80;100882.05;1668315;84;21245;-87
2022/08/21 05:15:58;;;;;;;9.73;7.25;;;;;;;22.06;80.66;100881.61;1675403;84;21061;-87
2022/08/21 05:18:25;;;;;;;8.15;7.30;;;;;;;22.07;80.68;100871.75;1679534;84;21667;-87
2022/08/21 05:20:52;;;;;;;8.48;7.58;;;;;;;22.10;80.80;100879.28;1672148;84;21011;-87
2022/08/21 05:23:19;;;;;;;8.30;6.90;;;;;;;22.17;80.79;100886.75;1689604;84;20996;-87
2022/08/21 05:25:46;;;;;;;8.20;6.83;;;;;;;22.23;80.75;100887.08;1683031;83;21004;-87
2022/08/21 05:28:13;;;;;;;8.23;6.85;;;;;;;22.27;80.68;100888.34;1682501;84;21080;-87
2022/08/21 05:30:40;;;;;;;7.85;7.05;;;;;;;22.31;80.67;100888.70;1687373;84;21828;-87
2022/08/21 05:33:08;;;;;;;8.45;7.17;;;;;;;22.35;80.56;100894.87;1692717;84;21615;-87
2022/08/21 05:35:35;;;;;;;7.35;6.62;;;;;;;22.36;80.51;100883.25;1700468;83;21035;-87
2022/08/21 05:38:02;;;;;;;8.78;6.75;;;;;;;22.35;80.32;100889.98;1700395;84;21016;-87
2022/08/21 05:40:29;;;;;;;7.92;6.87;;;;;;;22.32;80.20;100893.16;1690153;84;21035;-86
2022/08/21 05:42:56;;;;;;;8.68;7.40;;;;;;;22.35;80.36;100890.86;1687237;84;22411;-87
2022/08/21 05:45:24;;;;;;;7.58;6.80;;;;;;;22.39;80.30;100894.36;1672151;85;21008;-87
2022/08/21 05:47:51;;;;;;;8.10;6.47;;;;;;;22.42;80.29;100884.92;1697534;83;21035;-86
2022/08/21 05:50:19;;;;;;;9.23;7.10;;;;;;;22.49;80.24;100890.58;1670545;85;21130;-86
2022/08/21 05:52:48;;;;;;;9.20;6.80;;;;;;;22.51;80.17;100890.08;1675209;83;21000;-86
2022/08/21 05:55:14;;;;;;;8.65;7.25;;;;;;;22.52;80.19;100891.83;1703168;83;22412;-87
2022/08/21 05:57:41;;;;;;;12.93;6.80;;;;;;;22.56;80.24;100894.89;1694303;83;20990;-87
2022/08/21 06:00:12;;;;;;;10.88;7.25;;;;;;;22.60;80.15;100892.56;1709489;83;20988;-86
2022/08/21 06:02:39;;;;;;;10.23;7.37;;;;;;;22.61;80.16;100884.92;1710698;82;20999;-86
2022/08/21 06:05:07;;;;;;;12.98;6.87;;;;;;;22.64;79.91;100874.59;1713779;82;21019;-86
2022/08/21 06:07:37;;;;;;;6.87;6.22;;;;;;;22.59;79.78;100873.81;1728363;82;21824;-86
2022/08/21 06:10:05;;;;;;;6.78;6.15;;;;;;;22.59;79.95;100872.47;1676561;84;21026;-86
2022/08/21 06:12:31;;;;;;;7.67;6.55;;;;;;;22.64;79.86;100875.94;1725049;81;21003;-87
2022/08/21 06:14:58;;;;;;;7.08;6.20;;;;;;;22.68;79.89;100870.45;1726666;81;21002;-87
2022/08/21 06:17:31;;;;;;;6.67;5.92;;;;;;;22.73;79.79;100872.14;1727828;81;21026;-88
2022/08/21 06:19:58;;;;;;;7.12;5.87;;;;;;;22.75;79.64;100866.27;1693346;83;22578;-88
2022/08/21 06:22:28;;;;;;;6.80;6.10;;;;;;;22.77;79.59;100865.77;1715770;82;21002;-87
2022/08/21 06:24:55;;;;;;;5.78;5.28;;;;;;;22.78;79.41;100871.58;1715989;81;21026;-87
2022/08/21 06:27:22;;;;;;;7.40;5.05;;;;;;;22.73;79.23;100874.39;1717450;83;21039;-88
2022/08/21 06:29:48;;;;;;;5.40;4.42;;;;;;;22.62;79.12;100869.73;1718347;83;20977;-87
2022/08/21 06:32:15;;;;;;;5.40;4.92;;;;;;;22.50;79.12;100867.75;1728879;81;22542;-88
2022/08/21 06:34:42;;;;;;;7.47;4.75;;;;;;;22.49;79.47;100866.44;1681438;83;21057;-87
2022/08/21 06:37:08;;;;;;;5.72;5.22;;;;;;;22.46;79.27;100866.49;1696443;83;21034;-88
2022/08/21 06:39:35;;;;;;;4.95;4.45;;;;;;;22.42;79.39;100866.14;1722266;82;21443;-88
2022/08/21 06:42:11;;;;;;;5.28;4.85;;;;;;;22.37;79.37;100863.55;1686790;83;21018;-88
2022/08/21 06:44:37;;;;;;;5.20;4.65;;;;;;;22.29;79.43;100863.72;1721377;81;21753;-85
2022/08/21 06:47:05;;;;;;;5.70;5.20;;;;;;;22.25;79.59;100863.37;1670742;84;21029;-85
2022/08/21 06:49:31;;;;;;;5.25;4.45;;;;;;;22.23;79.67;100869.19;1677957;83;21010;-85
2022/08/21 06:51:58;;;;;;;4.97;4.47;;;;;;;22.17;79.57;100873.34;1704322;81;21480;-85
2022/08/21 06:54:25;;;;;;;4.87;4.22;;;;;;;22.10;79.67;100875.26;1722977;81;20985;-85
2022/08/21 06:56:52;;;;;;;5.28;4.78;;;;;;;22.07;79.73;100875.34;1720460;81;23215;-87
2022/08/21 06:59:19;;;;;;;5.50;4.97;;;;;;;22.04;80.00;100872.72;1717096;83;21005;-85
2022/08/21 07:01:46;;;;;;;5.33;4.72;;;;;;;21.98;79.81;100875.53;1721279;81;21013;-85
2022/08/21 07:04:13;;;;;;;6.62;4.50;;;;;;;21.92;80.14;100875.62;1716492;83;21063;-86
2022/08/21 07:06:48;;;;;;;4.58;4.15;;;;;;;21.90;80.41;100875.69;1716828;82;21094;-88
2022/08/21 07:09:13;;;;;;;;;;;;;;;21.87;80.46;100885.12;1718509;81;21632;-86
2022/08/21 07:11:40;;;;;;;5.55;5.03;;;;;;;21.83;80.69;100888.77;1712047;81;20691;-85
2022/08/21 07:14:06;;;;;;;5.30;4.45;;;;;;;21.77;80.57;100882.64;1722984;81;21030;-87
2022/08/21 07:16:33;;;;;;;4.70;4.10;;;;;;;21.73;80.88;100886.73;1718138;81;20998;-88
2022/08/21 07:19:00;;;;;;;9.65;3.95;;;;;;;21.68;80.76;100887.27;1720290;81;21022;-89
2022/08/21 07:21:27;;;;;;;5.03;3.65;;;;;;;21.68;81.10;100890.41;1678736;83;21752;-89
2022/08/21 07:23:54;;;;;;;4.33;3.77;;;;;;;21.64;80.96;100893.60;1705027;83;21031;-87
2022/08/21 07:26:22;;;;;;;6.50;3.37;;;;;;;21.54;81.37;100900.89;1702438;84;20987;-89
2022/08/21 07:28:49;;;;;;;7.12;4.28;;;;;;;21.51;81.30;100902.74;1652316;85;21019;-86
2022/08/21 07:31:18;;;;;;;6.72;4.17;;;;;;;21.43;81.59;100901.97;1647048;85;21027;-87
2022/08/21 07:33:45;;;;;;;4.78;4.03;;;;;;;21.33;81.43;100901.25;1667480;84;21834;-87
2022/08/21 07:36:12;;;;;;;4.15;3.72;;;;;;;21.18;81.36;100898.37;1696542;84;20960;-88
2022/08/21 07:38:39;;;;;;;5.25;4.75;;;;;;;21.11;81.86;100892.22;1693807;83;21066;-87
2022/08/21 07:41:21;;;;;;;5.72;4.97;;;;;;;21.02;82.11;100902.20;1699319;84;21227;-89
2022/08/21 07:43:48;;;;;;;7.60;5.20;;;;;;;20.99;82.39;100906.28;1675390;83;21023;-87
2022/08/21 07:46:15;;;;;;;5.90;5.35;;;;;;;20.98;82.63;100905.38;1694894;83;21809;-87
2022/08/21 07:48:42;;;;;;;6.12;4.47;;;;;;;21.01;82.66;100914.70;1698328;83;21529;-87
2022/08/21 07:51:12;;;;;;;7.60;5.47;;;;;;;20.94;82.53;100912.56;1698426;83;21020;-87
2022/08/21 07:53:39;;;;;;;6.12;5.53;;;;;;;20.95;82.85;100912.13;1676415;83;21106;-87
2022/08/21 07:56:06;;;;;;;5.40;4.40;;;;;;;21.01;82.95;100915.17;1699173;83;21036;-87
2022/08/21 07:58:33;;;;;;;6.85;4.65;;;;;;;21.04;82.96;100909.31;1697341;83;22543;-88
2022/08/21 08:01:00;;;;;;;5.60;4.22;;;;;;;21.07;82.77;100913.27;1709536;83;20992;-87
2022/08/21 08:03:27;;;;;;;4.75;4.30;;;;;;;21.02;82.62;100917.83;1689694;83;21005;-87
2022/08/21 08:05:56;;;;;;;6.05;3.95;;;;;;;20.97;82.55;100915.67;1698545;83;21051;-88
2022/08/21 08:08:23;;;;;;;4.50;4.10;;;;;;;21.01;82.67;100909.81;1651477;86;21007;-89
2022/08/21 08:10:51;;;;;;;5.05;4.55;;;;;;;21.04;82.71;100909.75;1698286;83;40015;-88
2022/08/21 08:13:19;;;;;;;6.17;4.78;;;;;;;21.15;82.92;100903.34;1695136;83;20995;-89
2022/08/21 08:15:46;;;;;;;5.37;4.83;;;;;;;21.34;83.01;100901.66;1691492;84;21043;-88
2022/08/21 08:18:13;;;;;;;4.62;4.22;;;;;;;21.55;82.88;100904.48;1709924;83;21190;-88
2022/08/21 08:20:40;;;;;;;4.40;4.00;;;;;;;21.69;82.45;100901.07;1696901;83;20948;-88
2022/08/21 08:23:23;;;;;;;3.92;3.62;;;;;;;21.83;82.22;100910.21;1668964;83;21537;-89
2022/08/21 08:26:06;;;;;;;;;;;;;;;21.92;81.78;100910.47;1715293;83;21434;-89
2022/08/21 08:29:01;;;;;;;4.60;3.75;;;;;;;21.98;81.52;100916.17;1718434;81;20169;-88
2022/08/21 08:31:40;;;;;;;3.87;3.55;;;;;;;22.09;81.45;100910.14;1711495;81;20995;-88
2022/08/21 08:34:23;;;;;;;4.90;4.03;;;;;;;22.22;80.91;100925.05;1723167;81;20999;-87
2022/08/21 08:36:42;;;;;;;4.87;4.42;;;;;;;22.37;81.19;100915.84;1678937;83;21001;-88
2022/08/21 08:39:08;;;;;;;5.55;5.05;;;;;;;22.63;80.77;100911.25;1719540;81;21038;-87
2022/08/21 08:41:44;;;;;;;4.95;4.35;;;;;;;22.81;79.91;100919.36;1705103;83;21052;-86
2022/08/21 08:44:07;;;;;;;7.72;3.80;;;;;;;22.87;79.72;100924.57;1659047;84;21035;-87
2022/08/21 08:46:41;;;;;;;4.72;3.00;;;;;;;22.92;79.21;100923.14;1658795;85;21075;-88
2022/08/21 08:49:24;;;;;;;3.83;3.52;;;;;;;22.98;79.15;100921.64;1658422;85;21698;-87
2022/08/21 08:51:57;;;;;;;5.00;3.17;;;;;;;23.00;78.15;100915.78;1691257;83;21028;-87
2022/08/21 08:54:48;;;;;;;3.87;3.17;;;;;;;22.97;78.18;100914.50;1692413;83;21034;-87
2022/08/21 08:57:32;;;;;;;7.28;3.72;;;;;;;23.02;77.98;100914.41;1703962;83;21211;-88
2022/08/21 09:00:09;;;;;;;3.92;3.52;;;;;;;23.09;77.78;100914.72;1700529;83;21509;-89
2022/08/21 09:02:43;;;;;;;4.00;3.22;;;;;;;23.18;77.96;100909.56;1681631;83;21370;-88
2022/08/21 09:05:49;;;;;;;3.50;3.20;;;;;;;23.22;77.62;100908.13;1707578;83;21449;-88
2022/08/21 09:08:40;;;;;;;6.12;3.95;;;;;;;23.35;77.70;100906.02;1605925;87;21555;-87
2022/08/21 09:11:15;;;;;;;7.33;6.47;;;;;;;23.63;77.39;100911.55;1656711;84;21000;-87
2022/08/21 09:14:15;;;;;;;6.55;5.55;;;;;;;23.70;76.84;100898.81;1636655;84;21007;-89
2022/08/21 09:17:09;;;;;;;3.80;3.08;;;;;;;23.73;76.04;100904.59;1622277;86;21031;-88
2022/08/21 09:19:44;;;;;;;5.30;3.87;;;;;;;23.63;75.94;100907.52;1649600;84;20976;-88
2022/08/21 09:22:44;;;;;;;6.12;4.75;;;;;;;23.51;75.95;100911.86;1624893;86;21050;-87
2022/08/21 09:25:30;;;;;;;;;;;;;;;;;;;;;
2022/08/21 09:27:56;;;;;;;3.92;3.33;;;;;;;23.15;75.36;100903.81;1708975;83;21043;-89
2022/08/21 09:30:34;;;;;;;4.58;3.40;;;;;;;22.95;75.64;100910.09;1659929;85;21786;-90
2022/08/21 09:33:38;;;;;;;4.65;3.70;;;;;;;22.80;75.87;100916.70;1641518;86;20952;-90
2022/08/21 09:36:00;;;;;;;4.92;3.60;;;;;;;22.78;76.51;100913.17;1633191;84;21070;-89
2022/08/21 09:38:35;;;;;;;3.77;3.15;;;;;;;22.73;76.25;100918.66;1691029;84;20980;-89
2022/08/21 09:41:08;;;;;;;4.25;3.70;;;;;;;22.71;76.36;100910.64;1683922;83;21480;-87
2022/08/21 09:43:35;;;;;;;3.37;3.08;;;;;;;22.82;76.49;100907.69;1632271;86;21941;-88
2022/08/21 09:46:18;;;;;;;4.33;3.08;;;;;;;22.87;76.21;100914.30;1652913;86;21034;-85
2022/08/21 09:48:48;;;;;;;3.60;3.00;;;;;;;22.90;76.44;100911.56;1672297;84;21054;-86
2022/08/21 09:51:18;;;;;;;4.78;3.10;;;;;;;22.96;76.37;100915.91;1688582;83;21136;-86
2022/08/21 09:53:57;;;;;;;4.83;2.80;;;;;;;23.00;76.40;100913.09;1691537;83;21342;-87
2022/08/21 09:59:37;;;;;;;4.55;3.52;;;;;;;23.04;76.34;100918.84;1702650;82;21466;-89
2022/08/21 10:02:04;;;;;;;6.62;5.78;;;;;;;23.05;75.92;100920.63;1673826;83;20972;-87
2022/08/21 10:04:35;;;;;;;4.28;3.60;;;;;;;23.00;76.26;100923.83;1711965;82;21039;-89
2022/08/21 10:07:16;;;;;;;7.17;6.47;;;;;;;23.00;76.24;100925.17;1717291;82;21019;-88
2022/08/21 10:09:51;;;;;;;8.63;5.90;;;;;;;23.05;76.31;100921.97;1692073;83;21465;-88
2022/08/21 10:12:23;;;;;;;4.62;3.92;;;;;;;23.01;75.98;100915.31;1697022;82;21010;-88
2022/08/21 10:15:13;;;;;;;4.92;3.30;;;;;;;22.95;75.89;100916.81;1700420;82;20979;-86
2022/08/21 10:18:11;;;;;;;4.78;3.45;;;;;;;22.84;75.89;100917.95;1692704;82;20960;-88
2022/08/21 10:21:02;;;;;;;3.40;3.10;;;;;;;22.79;76.04;100918.98;1632629;86;21034;-87
2022/08/21 10:23:58;;;;;;;4.35;3.05;;;;;;;22.76;76.00;100912.33;1629660;86;21774;-88
2022/08/21 10:27:16;;;;;;;3.90;3.17;;;;;;;22.74;76.05;100918.20;1646945;86;20995;-88
2022/08/21 10:29:56;;;;;;;4.03;2.60;;;;;;;22.73;76.09;100915.98;1643091;86;21067;-87
2022/08/21 10:32:38;;;;;;;4.65;3.02;;;;;;;22.75;76.02;100919.94;1595739;88;21086;-87
2022/08/21 10:35:18;;;;;;;8.05;3.10;;;;;;;22.64;75.39;100922.42;1616057;86;21010;-87
2022/08/21 10:38:14;;;;;;;3.12;2.30;;;;;;;22.58;75.52;100927.03;1616973;86;21849;-88
2022/08/21 10:41:04;;;;;;;5.08;2.85;;;;;;;22.50;75.13;100950.00;1618967;86;21039;-89
2022/08/21 10:44:05;;;;;;;8.35;3.02;;;;;;;22.36;75.23;100944.94;1618146;86;21003;-88
2022/08/21 10:46:58;;;;;;;3.45;2.70;;;;;;;22.32;75.42;100938.75;1615119;86;21054;-89
2022/08/21 10:49:51;;;;;;;4.80;2.85;;;;;;;22.31;75.36;100939.65;1627794;86;21575;-89
2022/08/21 10:52:38;;;;;;;5.90;2.30;;;;;;;22.31;75.16;100934.75;1623582;88;21786;-89
2022/08/21 10:55:16;;;;;;;4.75;2.52;;;;;;;22.34;75.42;100937.84;1611246;86;21050;-89
2022/08/21 10:58:01;;;;;;;5.17;2.72;;;;;;;22.30;75.13;100937.90;1655702;81;20998;-88
2022/08/21 11:00:45;;;;;;;3.77;2.40;;;;;;;22.26;75.00;100944.25;1696110;82;21012;-87
2022/08/21 11:03:18;;;;;;;3.65;2.12;;;;;;;22.24;75.21;100942.02;1708173;82;20980;-87
2022/08/21 11:05:54;;;;;;;4.45;2.42;;;;;;;22.24;75.14;100947.81;1699065;83;21773;-87
2022/08/21 11:08:35;;;;;;;3.52;2.40;;;;;;;22.25;75.17;100942.47;1684626;82;21074;-87
2022/08/21 11:11:16;;;;;;;4.90;2.85;;;;;;;22.25;75.07;100950.52;1660852;84;21004;-87
2022/08/21 11:13:51;;;;;;;3.72;2.45;;;;;;;22.16;75.20;100943.08;1646403;86;20999;-87
2022/08/21 11:16:57;;;;;;;6.17;5.10;;;;;;;22.17;75.51;100949.76;1658614;84;21031;-88
2022/08/21 11:19:47;;;;;;;5.25;3.60;;;;;;;22.17;75.54;100952.44;1647798;85;21918;-87
2022/08/21 11:22:48;;;;;;;3.92;3.20;;;;;;;22.19;75.40;100955.97;1660168;84;21034;-88
2022/08/21 11:25:29;;;;;;;3.70;2.90;;;;;;;22.12;74.83;100962.36;1651145;84;21002;-87
2022/08/21 11:28:04;;;;;;;3.05;2.60;;;;;;;21.97;74.97;100959.52;1710216;83;21007;-87
2022/08/21 11:31:00;;;;;;;4.42;2.33;;;;;;;21.98;75.04;100961.30;1667080;85;20980;-87
2022/08/21 11:34:08;;;;;;;5.50;2.60;;;;;;;21.93;74.76;100971.21;1644631;86;21713;-87
2022/08/21 11:37:10;;;;;;;2.55;2.25;;;;;;;21.85;74.76;100968.67;1656177;84;21019;-88
2022/08/21 11:39:58;;;;;;;3.27;2.92;;;;;;;21.77;74.74;100979.97;1629548;84;21916;-88
2022/08/21 11:42:42;;;;;;;4.92;2.67;;;;;;;21.65;74.62;100977.52;1621091;86;21175;-87
2022/08/21 11:45:15;;;;;;;;;;;;;;;21.49;74.71;100987.59;1663109;84;21004;-89
2022/08/21 11:48:14;;;;;;;3.40;2.60;;;;;;;21.38;74.97;100990.43;1666685;84;21767;-88
2022/08/21 11:50:41;;;;;;;3.92;2.40;;;;;;;21.36;75.27;100986.89;1615585;86;21003;-88
2022/08/21 11:53:33;;;;;;;3.30;2.35;;;;;;;21.32;75.33;100995.43;1666671;84;21457;-88